Time;durP1;ratioP1;P1;durP2;ratioP2;P2;SDS_P1;SDS_P2;PMS_P1;PMS_P2;Temp;Humidity;BMP_temperature;BMP_pressure;BME280_temperature;BME280_humidity;BME280_pressure;Samples;Min_cycle;Max_cycle;Signal;HPM_P1;HPM_P2
2022/10/29 00:01:55;;;;;;;;;;;;;;;8.51;95.38;99826.97;5091535;28;20356;-64
2022/10/29 00:04:21;;;;;;;;;;;;;;;8.56;95.27;99821.56;5107744;28;19955;-63
2022/10/29 00:06:47;;;;;;;;;;;;;;;8.57;95.15;99823.19;5107836;28;19927;-63
2022/10/29 00:09:13;;;;;;;;;;;;;;;8.56;95.10;99826.19;5105919;28;19989;-64
2022/10/29 00:11:38;;;;;;;;;;;;;;;8.57;95.35;99822.38;5093538;28;19934;-63
2022/10/29 00:14:05;;;;;;;;;;;;;;;8.54;95.08;99823.72;5110498;28;20459;-63
2022/10/29 00:16:34;;;;;;;;;;;;;;;8.51;95.28;99819.63;5110861;28;19935;-63
2022/10/29 00:18:59;;;;;;;;;;;;;;;8.51;95.19;99824.25;5109625;28;19982;-64
2022/10/29 00:21:25;;;;;;;;;;;;;;;8.49;95.43;99812.75;5108607;28;19959;-64
2022/10/29 00:23:52;;;;;;;;;;;;;;;8.50;95.41;99822.59;5110260;28;20023;-62
2022/10/29 00:26:19;;;;;;;;;;;;;;;8.47;95.61;99813.00;5092090;28;20022;-62
2022/10/29 00:28:44;;;;;;;;;;;;;;;8.45;95.72;99812.44;5092200;28;19927;-64
2022/10/29 00:31:13;;;;;;;;;;;;;;;8.46;95.64;99818.72;5110349;28;19927;-63
2022/10/29 00:33:38;;;;;;;;;;;;;;;8.47;95.82;99820.38;5107324;28;19931;-63
2022/10/29 00:36:05;;;;;;;;;;;;;;;8.49;95.58;99812.75;5106263;28;19927;-65
2022/10/29 00:38:31;;;;;;;;;;;;;;;8.52;95.69;99806.81;5107610;28;19928;-63
2022/10/29 00:40:57;;;;;;;;;;;;;;;8.51;95.30;99808.72;5108373;28;19928;-63
2022/10/29 00:43:24;;;;;;;;;;;;;;;8.54;95.29;99799.19;5109366;28;20511;-63
2022/10/29 00:45:51;;;;;;;;;;;;;;;8.54;95.16;99807.38;5109927;28;19927;-64
2022/10/29 00:48:19;;;;;;;;;;;;;;;8.55;95.07;99808.19;5108926;28;19935;-63
2022/10/29 00:50:46;;;;;;;;;;;;;;;8.58;95.03;99799.50;5106140;28;20087;-64
2022/10/29 00:53:12;;;;;;;;;;;;;;;8.60;94.67;99802.78;5109812;28;20051;-63
2022/10/29 00:55:38;;;;;;;;;;;;;;;8.61;94.50;99801.69;5107015;28;19971;-64
2022/10/29 00:58:03;;;;;;;;;;;;;;;8.63;94.38;99789.47;5108378;28;19985;-63
2022/10/29 01:00:29;;;;;;;;;;;;;;;8.65;94.01;99789.19;5108049;28;19927;-65
2022/10/29 01:02:55;;;;;;;;;;;;;;;8.63;93.89;99789.47;5108154;28;20462;-66
2022/10/29 01:05:23;;;;;;;;;;;;;;;8.64;93.72;99790.25;5105864;28;19963;-66
2022/10/29 01:07:49;;;;;;;;;;;;;;;8.60;93.51;99789.16;5108394;28;19927;-66
2022/10/29 01:10:15;;;;;;;;;;;;;;;8.57;93.47;99785.03;5108802;28;19934;-65
2022/10/29 01:12:50;;;;;;;;;;;;;;;8.56;93.47;99779.88;5109802;28;19927;-66
2022/10/29 01:15:19;;;;;;;;;;;;;;;8.56;93.15;99780.66;5106908;28;19927;-65
2022/10/29 01:17:51;;;;;;;;;;;;;;;8.60;92.89;99770.06;5108477;28;19938;-66
2022/10/29 01:20:43;;;;;;;;;;;;;;;8.57;92.43;99770.59;5109570;28;19928;-65
2022/10/29 01:23:15;;;;;;;;;;;;;;;8.47;92.45;99766.69;5108964;28;19928;-65
2022/10/29 01:25:52;;;;;;;;;;;;;;;8.36;92.44;99765.78;5106660;28;20395;-64
2022/10/29 01:28:23;;;;;;;;;;;;;;;8.23;92.72;99758.06;5108181;28;19928;-65
2022/10/29 01:31:00;;;;;;;;;;;;;;;8.13;93.12;99763.44;5108924;28;19955;-65
2022/10/29 01:33:31;;;;;;;;;;;;;;;8.05;93.27;99754.66;5108340;28;19939;-66
2022/10/29 01:36:01;;;;;;;;;;;;;;;7.99;93.46;99754.84;5109768;28;20391;-65
2022/10/29 01:38:33;;;;;;;;;;;;;;;7.77;93.76;99726.63;5106144;28;19966;-65
2022/10/29 01:41:02;;;;;;;;;;;;;;;7.91;93.77;99748.81;5108329;28;19927;-66
2022/10/29 01:43:32;;;;;;;;;;;;;;;7.91;93.98;99751.53;5108574;28;19928;-67
2022/10/29 01:46:03;;;;;;;;;;;;;;;7.79;93.90;99726.38;5104276;28;20049;-66
2022/10/29 01:48:31;;;;;;;;;;;;;;;7.97;93.95;99741.53;5104654;28;19932;-66
2022/10/29 01:51:00;;;;;;;;;;;;;;;8.05;93.62;99743.75;5107592;28;19955;-66
2022/10/29 01:53:27;;;;;;;;;;;;;;;8.05;93.38;99732.06;5111409;28;20720;-66
2022/10/29 01:55:53;;;;;;;;;;;;;;;8.03;93.25;99734.19;5106843;28;19935;-67
2022/10/29 01:58:18;;;;;;;;;;;;;;;8.01;93.15;99728.19;5106319;28;20360;-65
2022/10/29 02:00:48;;;;;;;;;;;;;;;8.00;93.17;99730.09;5104013;28;19935;-66
2022/10/29 02:03:22;;;;;;;;;;;;;;;8.00;93.25;99726.53;5107318;28;20461;-66
2022/10/29 02:05:56;;;;;;;;;;;;;;;8.00;93.14;99723.81;5106989;28;19929;-66
2022/10/29 02:08:28;;;;;;;;;;;;;;;7.99;92.89;99725.75;5111329;28;19928;-67
2022/10/29 02:10:58;;;;;;;;;;;;;;;7.98;93.00;99726.00;5106228;28;19931;-66
2022/10/29 02:13:29;;;;;;;;;;;;;;;7.98;92.98;99724.09;5107866;28;19931;-66
2022/10/29 02:15:55;;;;;;;;;;;;;;;7.98;92.76;99718.66;5104898;28;19928;-65
2022/10/29 02:18:23;;;;;;;;;;;;;;;7.95;92.97;99714.53;5106616;28;19927;-66
2022/10/29 02:20:48;;;;;;;;;;;;;;;7.90;92.80;99703.63;5108773;28;19927;-65
2022/10/29 02:23:15;;;;;;;;;;;;;;;7.88;93.19;99697.63;5107581;28;19980;-66
2022/10/29 02:25:41;;;;;;;;;;;;;;;7.89;93.61;99712.03;5107780;28;19950;-66
2022/10/29 02:28:07;;;;;;;;;;;;;;;7.93;93.42;99710.44;5106465;28;19928;-66
2022/10/29 02:30:33;;;;;;;;;;;;;;;7.95;93.32;99713.72;5104332;28;20395;-66
2022/10/29 02:32:58;;;;;;;;;;;;;;;7.81;93.26;99686.09;5105336;28;19981;-66
2022/10/29 02:35:25;;;;;;;;;;;;;;;7.93;93.35;99703.09;5108642;28;19935;-65
2022/10/29 02:37:51;;;;;;;;;;;;;;;7.93;93.25;99699.53;5108202;28;19934;-66
2022/10/29 02:40:17;;;;;;;;;;;;;;;7.92;93.10;99703.34;5107634;28;19927;-66
2022/10/29 02:42:43;;;;;;;;;;;;;;;7.90;93.42;99700.91;5104527;28;19927;-66
2022/10/29 02:45:09;;;;;;;;;;;;;;;7.90;93.61;99695.44;5099350;28;19984;-66
2022/10/29 02:47:35;;;;;;;;;;;;;;;7.89;93.78;99695.69;5102220;28;19931;-66
2022/10/29 02:50:00;;;;;;;;;;;;;;;7.89;94.09;99695.69;5104636;28;20315;-65
2022/10/29 02:52:28;;;;;;;;;;;;;;;7.87;94.05;99692.41;5107348;28;19954;-66
2022/10/29 02:54:53;;;;;;;;;;;;;;;7.86;93.98;99693.50;5106351;28;19927;-68
2022/10/29 02:57:19;;;;;;;;;;;;;;;7.86;94.28;99688.84;5107707;28;19934;-66
2022/10/29 02:59:45;;;;;;;;;;;;;;;7.88;94.26;99691.34;5106116;28;20197;-65
2022/10/29 03:02:11;;;;;;;;;;;;;;;7.90;94.20;99681.00;5105743;28;19927;-66
2022/10/29 03:04:38;;;;;;;;;;;;;;;7.94;94.36;99680.22;5085518;28;19950;-66
2022/10/29 03:07:03;;;;;;;;;;;;;;;7.97;94.06;99678.91;5086033;28;19934;-66
2022/10/29 03:09:31;;;;;;;;;;;;;;;7.97;93.95;99676.19;5087553;28;20027;-65
2022/10/29 03:11:56;;;;;;;;;;;;;;;7.94;93.96;99668.50;5086022;28;19939;-65
2022/10/29 03:14:22;;;;;;;;;;;;;;;7.89;94.03;99663.88;5084814;28;19928;-65
2022/10/29 03:16:48;;;;;;;;;;;;;;;7.86;94.06;99661.63;5086746;28;19928;-65
2022/10/29 03:19:16;;;;;;;;;;;;;;;7.84;94.46;99665.72;5090407;28;19927;-65
2022/10/29 03:21:42;;;;;;;;;;;;;;;7.84;94.52;99654.84;5104791;28;19979;-65
2022/10/29 03:24:08;;;;;;;;;;;;;;;7.86;94.48;99652.66;5106175;28;19931;-65
2022/10/29 03:26:35;;;;;;;;;;;;;;;7.91;94.40;99648.09;5106775;28;19927;-66
2022/10/29 03:29:00;;;;;;;;;;;;;;;8.00;94.37;99645.69;5109106;28;19941;-65
2022/10/29 03:31:26;;;;;;;;;;;;;;;8.12;94.21;99647.38;5111219;28;19936;-65
2022/10/29 03:33:52;;;;;;;;;;;;;;;8.18;93.57;99652.59;5091842;28;20038;-65
2022/10/29 03:36:18;;;;;;;;;;;;;;;8.25;93.55;99649.66;5110564;28;19980;-66
2022/10/29 03:38:43;;;;;;;;;;;;;;;8.30;93.01;99651.59;5109087;28;19928;-65
2022/10/29 03:41:09;;;;;;;;;;;;;;;8.34;92.86;99639.09;5108433;28;19928;-68
2022/10/29 03:43:37;;;;;;;;;;;;;;;8.38;92.51;99638.28;5112521;28;19928;-66
2022/10/29 03:46:02;;;;;;;;;;;;;;;8.40;92.23;99639.94;5111266;28;19927;-66
2022/10/29 03:48:28;;;;;;;;;;;;;;;8.41;92.25;99622.50;5095964;28;19928;-66
2022/10/29 03:50:55;;;;;;;;;;;;;;;8.44;92.20;99630.97;5087146;28;20382;-66
2022/10/29 03:53:21;;;;;;;;;;;;;;;8.47;91.99;99622.25;5088336;28;19934;-64
2022/10/29 03:55:48;;;;;;;;;;;;;;;8.50;91.48;99629.13;5088329;28;19932;-63
2022/10/29 03:58:14;;;;;;;;;;;;;;;8.50;91.48;99629.13;5091907;28;20010;-63
2022/10/29 04:00:41;;;;;;;;;;;;;;;8.53;91.32;99627.78;5092056;28;19940;-63
2022/10/29 04:03:06;;;;;;;;;;;;;;;8.52;91.21;99632.41;5089454;28;19928;-63
2022/10/29 04:05:32;;;;;;;;;;;;;;;8.51;91.00;99626.16;5071166;28;19928;-63
2022/10/29 04:07:58;;;;;;;;;;;;;;;8.53;91.21;99623.13;5091147;28;19932;-63
2022/10/29 04:10:25;;;;;;;;;;;;;;;8.50;91.25;99613.59;5070269;28;20363;-63
2022/10/29 04:12:51;;;;;;;;;;;;;;;8.49;90.96;99614.63;5090529;28;20496;-63
2022/10/29 04:15:16;;;;;;;;;;;;;;;8.47;91.02;99605.91;5089317;28;19928;-63
2022/10/29 04:17:44;;;;;;;;;;;;;;;8.49;91.08;99611.09;5090995;28;19935;-63
2022/10/29 04:20:10;;;;;;;;;;;;;;;8.51;91.13;99600.78;5089053;28;19950;-63
2022/10/29 04:22:35;;;;;;;;;;;;;;;8.53;91.21;99601.34;5089058;28;19974;-64
2022/10/29 04:25:01;;;;;;;;;;;;;;;8.54;90.87;99589.34;5087297;28;20271;-63
2022/10/29 04:27:30;;;;;;;;;;;;;;;8.55;91.00;99590.19;5085790;28;19928;-63
2022/10/29 04:29:56;;;;;;;;;;;;;;;8.55;90.77;99582.81;5088358;28;19973;-63
2022/10/29 04:32:22;;;;;;;;;;;;;;;8.58;90.72;99570.56;5090604;28;20337;-63
2022/10/29 04:34:49;;;;;;;;;;;;;;;8.59;90.57;99577.66;5089869;28;19943;-63
2022/10/29 04:37:15;;;;;;;;;;;;;;;8.57;90.67;99574.38;5091337;28;19928;-64
2022/10/29 04:39:40;;;;;;;;;;;;;;;8.53;90.40;99579.53;5096429;28;19928;-63
2022/10/29 04:42:06;;;;;;;;;;;;;;;8.53;90.40;99571.38;5091651;28;19935;-64
2022/10/29 04:44:31;;;;;;;;;;;;;;;8.51;90.38;99559.91;5090802;28;20019;-63
2022/10/29 04:46:57;;;;;;;;;;;;;;;8.54;90.41;99564.81;5089361;28;20288;-63
2022/10/29 04:49:23;;;;;;;;;;;;;;;8.55;90.53;99558.28;5089747;28;19928;-63
2022/10/29 04:51:50;;;;;;;;;;;;;;;8.56;90.23;99559.94;5090291;28;20381;-63
2022/10/29 04:54:16;;;;;;;;;;;;;;;8.57;90.07;99549.84;5089176;28;19981;-63
2022/10/29 04:56:41;;;;;;;;;;;;;;;8.54;90.15;99544.94;5090934;28;19927;-63
2022/10/29 04:59:07;;;;;;;;;;;;;;;8.52;90.19;99545.19;5088781;28;19928;-63
2022/10/29 05:01:33;;;;;;;;;;;;;;;8.47;90.35;99545.97;5087091;28;19935;-63
2022/10/29 05:03:58;;;;;;;;;;;;;;;8.45;90.53;99531.00;5087104;28;19928;-63
2022/10/29 05:06:24;;;;;;;;;;;;;;;8.44;90.56;99526.63;5087305;28;19928;-63
2022/10/29 05:08:51;;;;;;;;;;;;;;;8.42;90.63;99536.94;5084211;28;21488;-64
2022/10/29 05:11:17;;;;;;;;;;;;;;;8.43;90.91;99528.53;5078110;28;20321;-63
2022/10/29 05:13:44;;;;;;;;;;;;;;;8.45;91.08;99545.41;5075957;28;19928;-63
2022/10/29 05:16:10;;;;;;;;;;;;;;;8.48;90.65;99530.44;5089666;28;19973;-63
2022/10/29 05:18:36;;;;;;;;;;;;;;;8.50;90.49;99529.09;5089985;28;19928;-63
2022/10/29 05:21:02;;;;;;;;;;;;;;;8.55;90.31;99530.22;5085774;28;19939;-64
2022/10/29 05:23:27;;;;;;;;;;;;;;;8.57;90.01;99531.59;5092682;28;19931;-64
2022/10/29 05:25:55;;;;;;;;;;;;;;;8.58;89.96;99535.94;5095285;27;19928;-64
2022/10/29 05:28:21;;;;;;;;;;;;;;;8.64;90.18;99536.78;5095601;28;20026;-63
2022/10/29 05:30:48;;;;;;;;;;;;;;;8.66;89.69;99537.31;5108377;28;19932;-64
2022/10/29 05:33:15;;;;;;;;;;;;;;;8.72;89.85;99541.72;5108777;28;19934;-63
2022/10/29 05:35:41;;;;;;;;;;;;;;;8.74;89.62;99536.81;5109081;28;19927;-64
2022/10/29 05:38:08;;;;;;;;;;;;;;;8.78;89.35;99528.94;5099221;28;20374;-63
2022/10/29 05:40:34;;;;;;;;;;;;;;;8.80;89.51;99526.75;5089061;28;20102;-63
2022/10/29 05:43:01;;;;;;;;;;;;;;;8.84;89.32;99522.38;5091696;28;20047;-63
2022/10/29 05:45:26;;;;;;;;;;;;;;;8.87;88.97;99519.13;5091605;28;20391;-65
2022/10/29 05:47:56;;;;;;;;;;;;;;;8.89;88.79;99521.59;5090116;28;19958;-65
2022/10/29 05:50:22;;;;;;;;;;;;;;;8.91;88.65;99519.41;5090871;28;19935;-65
2022/10/29 05:52:53;;;;;;;;;;;;;;;8.90;88.78;99509.59;5088777;28;20326;-66
2022/10/29 05:55:19;;;;;;;;;;;;;;;8.88;88.26;99514.50;5090456;28;19943;-65
2022/10/29 05:57:45;;;;;;;;;;;;;;;8.87;88.45;99508.22;5088071;28;19932;-65
2022/10/29 06:00:12;;;;;;;;;;;;;;;8.86;88.38;99498.41;5088878;28;20326;-66
2022/10/29 06:02:38;;;;;;;;;;;;;;;8.88;88.42;99509.03;5088895;28;20052;-65
2022/10/29 06:05:04;;;;;;;;;;;;;;;8.87;88.28;99502.75;5068929;28;19931;-63
2022/10/29 06:07:30;;;;;;;;;;;;;;;8.85;88.59;99495.97;5087548;28;19927;-64
2022/10/29 06:09:55;;;;;;;;;;;;;;;8.86;88.51;99494.88;5085054;28;19954;-63
2022/10/29 06:12:21;;;;;;;;;;;;;;;8.87;88.31;99496.50;5087775;28;19938;-63
2022/10/29 06:14:47;;;;;;;;;;;;;;;8.91;88.63;99498.41;5089151;28;19932;-63
2022/10/29 06:17:14;;;;;;;;;;;;;;;8.93;88.16;99488.06;5089182;28;20018;-63
2022/10/29 06:19:39;;;;;;;;;;;;;;;9.00;87.77;99489.69;5087539;28;19959;-63
2022/10/29 06:22:05;;;;;;;;;;;;;;;9.03;87.69;99484.50;5086889;28;19993;-64
2022/10/29 06:24:31;;;;;;;;;;;;;;;9.10;87.49;99483.41;5084604;28;19938;-64
2022/10/29 06:26:56;;;;;;;;;;;;;;;9.14;86.85;99479.06;5089382;28;19998;-65
2022/10/29 06:29:23;;;;;;;;;;;;;;;9.13;86.41;99477.41;5089487;28;20502;-63
2022/10/29 06:31:48;;;;;;;;;;;;;;;9.11;86.53;99477.69;5087248;28;19928;-63
2022/10/29 06:34:16;;;;;;;;;;;;;;;9.15;86.27;99477.97;5084854;28;19958;-63
2022/10/29 06:36:41;;;;;;;;;;;;;;;9.18;86.00;99463.78;5086884;28;20022;-63
2022/10/29 06:39:07;;;;;;;;;;;;;;;9.21;86.05;99471.41;5087782;28;20399;-63
2022/10/29 06:41:33;;;;;;;;;;;;;;;9.20;85.77;99462.41;5069373;28;19951;-64
2022/10/29 06:43:58;;;;;;;;;;;;;;;9.16;85.61;99458.59;5087363;28;19973;-63
2022/10/29 06:46:24;;;;;;;;;;;;;;;9.13;85.72;99453.69;5089236;28;19950;-63
2022/10/29 06:48:50;;;;;;;;;;;;;;;9.15;85.89;99456.97;5070616;28;19943;-65
2022/10/29 06:51:17;;;;;;;;;;;;;;;9.18;85.84;99458.34;5087018;28;19928;-65
2022/10/29 06:53:43;;;;;;;;;;;;;;;9.19;85.81;99454.50;5088050;28;20248;-65
2022/10/29 06:56:08;;;;;;;;;;;;;;;9.18;85.64;99447.41;5088718;28;20379;-66
2022/10/29 06:58:34;;;;;;;;;;;;;;;9.16;85.89;99441.44;5087238;28;19958;-63
2022/10/29 07:01:00;;;;;;;;;;;;;;;9.15;85.46;99445.25;5086752;28;19957;-63
2022/10/29 07:03:25;;;;;;;;;;;;;;;9.11;85.67;99441.41;5087448;28;20435;-63
2022/10/29 07:05:55;;;;;;;;;;;;;;;9.12;85.75;99427.50;5085187;28;19963;-64
2022/10/29 07:08:22;;;;;;;;;;;;;;;9.15;85.87;99437.88;5084404;28;20467;-64
2022/10/29 07:10:49;;;;;;;;;;;;;;;9.17;85.90;99432.16;5086491;28;19932;-63
2022/10/29 07:13:15;;;;;;;;;;;;;;;9.16;85.80;99425.84;5086960;28;20482;-63
2022/10/29 07:15:40;;;;;;;;;;;;;;;9.16;85.98;99423.13;5070656;28;20268;-63
2022/10/29 07:18:07;;;;;;;;;;;;;;;9.14;85.80;99419.88;5084926;28;20121;-63
2022/10/29 07:20:34;;;;;;;;;;;;;;;9.16;85.86;99416.88;5089029;28;19958;-66
2022/10/29 07:23:00;;;;;;;;;;;;;;;9.21;85.42;99414.13;5087394;28;19928;-66
2022/10/29 07:25:28;;;;;;;;;;;;;;;9.25;85.47;99406.22;5071345;28;19935;-68
2022/10/29 07:27:54;;;;;;;;;;;;;;;9.24;85.18;99415.50;5088033;28;19964;-65
2022/10/29 07:30:20;;;;;;;;;;;;;;;9.19;84.88;99408.94;5086754;28;19966;-65
2022/10/29 07:32:46;;;;;;;;;;;;;;;9.16;85.36;99414.16;5084752;28;19941;-65
2022/10/29 07:35:11;;;;;;;;;;;;;;;9.10;85.77;99421.50;5089004;28;20164;-66
2022/10/29 07:37:37;;;;;;;;;;;;;;;9.07;86.29;99408.44;5088024;28;20399;-65
2022/10/29 07:40:03;;;;;;;;;;;;;;;9.05;86.48;99402.41;5087523;28;19928;-65
2022/10/29 07:42:30;;;;;;;;;;;;;;;9.09;86.31;99398.06;5088027;28;19935;-65
2022/10/29 07:44:56;;;;;;;;;;;;;;;9.08;86.30;99394.50;5088665;28;20391;-66
2022/10/29 07:47:22;;;;;;;;;;;;;;;9.19;86.03;99397.22;5085470;28;19935;-65
2022/10/29 07:49:48;;;;;;;;;;;;;;;9.28;85.70;99378.38;5069676;28;19960;-65
2022/10/29 07:52:13;;;;;;;;;;;;;;;9.33;85.33;99378.34;5099740;28;20030;-66
2022/10/29 07:54:39;;;;;;;;;;;;;;;9.45;84.89;99378.88;5105738;28;20404;-65
2022/10/29 07:57:05;;;;;;;;;;;;;;;9.51;84.25;99368.78;5109185;28;20460;-65
2022/10/29 07:59:32;;;;;;;;;;;;;;;9.48;83.62;99372.06;5107137;28;20253;-67
2022/10/29 08:01:58;;;;;;;;;;;;;;;9.48;84.06;99381.03;5105715;28;19985;-66
2022/10/29 08:04:23;;;;;;;;;;;;;;;9.45;83.99;99373.41;5107177;28;20426;-65
2022/10/29 08:06:49;;;;;;;;;;;;;;;9.42;83.98;99370.41;5106984;28;19928;-66
2022/10/29 08:09:15;;;;;;;;;;;;;;;9.33;84.25;99360.09;5104719;28;20423;-65
2022/10/29 08:11:41;;;;;;;;;;;;;;;9.30;84.54;99359.81;5105220;28;19928;-65
2022/10/29 08:14:06;;;;;;;;;;;;;;;9.21;84.45;99360.41;5108745;28;19929;-66
2022/10/29 08:16:33;;;;;;;;;;;;;;;9.14;85.79;99348.16;5109170;28;19935;-66
2022/10/29 08:18:59;;;;;;;;;;;;;;;9.11;86.81;99354.13;5091501;28;20499;-65
2022/10/29 08:21:25;;;;;;;;;;;;;;;9.02;87.54;99351.97;5108290;28;19935;-65
2022/10/29 08:23:51;;;;;;;;;;;;;;;8.84;89.60;99345.19;5108108;28;19928;-66
2022/10/29 08:26:18;;;;;;;;;;;;;;;8.65;91.00;99345.75;5107411;28;19935;-66
2022/10/29 08:28:44;;;;;;;;;;;;;;;8.54;93.02;99344.09;5106825;28;20149;-66
2022/10/29 08:31:09;;;;;;;;;;;;;;;8.44;93.92;99333.19;5107113;28;19928;-66
2022/10/29 08:33:36;;;;;;;;;;;;;;;8.36;94.83;99331.81;5109523;28;19928;-65
2022/10/29 08:36:02;;;;;;;;;;;;;;;8.25;96.06;99320.06;5109714;28;20387;-68
2022/10/29 08:38:28;;;;;;;;;;;;;;;8.23;97.23;99355.78;5108554;28;20034;-66
2022/10/29 08:41:04;;;;;;;;;;;;;;;8.21;97.87;99328.00;5108568;28;20035;-67
2022/10/29 08:43:44;;;;;;;;;;;;;;;8.25;98.44;99322.81;5107642;28;20105;-67
2022/10/29 08:46:16;;;;;;;;;;;;;;;8.28;98.48;99340.53;5106519;28;19942;-67
2022/10/29 08:48:47;;;;;;;;;;;;;;;8.28;98.11;99322.28;5107190;28;19927;-69
2022/10/29 08:51:16;;;;;;;;;;;;;;;8.31;98.22;99319.00;5106432;28;19928;-67
2022/10/29 08:53:43;;;;;;;;;;;;;;;8.30;97.80;99313.81;5106562;28;19973;-67
2022/10/29 08:56:13;;;;;;;;;;;;;;;8.31;97.54;99307.28;5106061;28;19962;-67
2022/10/29 08:58:42;;;;;;;;;;;;;;;8.32;97.56;99307.03;5104381;28;20022;-67
2022/10/29 09:01:09;;;;;;;;;;;;;;;8.38;97.04;99292.31;5090453;28;19978;-65
2022/10/29 09:03:35;;;;;;;;;;;;;;;8.42;96.02;99308.09;5109961;28;20500;-67
2022/10/29 09:06:07;;;;;;;;;;;;;;;8.47;95.62;99294.50;5112212;28;19936;-64
2022/10/29 09:08:38;;;;;;;;;;;;;;;8.56;95.41;99292.06;5089883;28;19928;-65
2022/10/29 09:11:08;;;;;;;;;;;;;;;8.69;95.09;99283.34;5110993;28;19934;-65
2022/10/29 09:13:42;;;;;;;;;;;;;;;8.79;94.64;99282.50;5108285;28;19928;-66
2022/10/29 09:16:20;;;;;;;;;;;;;;;8.80;93.68;99267.78;5107329;28;19928;-68
2022/10/29 09:18:51;;;;;;;;;;;;;;;8.85;93.18;99267.75;5068524;28;19973;-64
2022/10/29 09:21:23;;;;;;;;;;;;;;;8.89;93.45;99263.38;5088877;28;20330;-64
2022/10/29 09:23:57;;;;;;;;;;;;;;;8.90;92.85;99245.13;5088675;28;19928;-65
2022/10/29 09:26:26;;;;;;;;;;;;;;;8.85;92.11;99240.50;5087510;28;20361;-67
2022/10/29 09:28:59;;;;;;;;;;;;;;;8.83;92.35;99244.59;5101823;28;19975;-67
2022/10/29 09:31:28;;;;;;;;;;;;;;;8.85;92.24;99240.50;5068401;28;20327;-67
2022/10/29 09:33:57;;;;;;;;;;;;;;;8.87;91.79;99234.78;5100420;28;20399;-67
2022/10/29 09:36:24;;;;;;;;;;;;;;;8.86;91.71;99231.22;5087141;28;19958;-67
2022/10/29 09:38:53;;;;;;;;;;;;;;;8.83;91.72;99236.44;5090998;28;19935;-67
2022/10/29 09:41:23;;;;;;;;;;;;;;;8.80;91.38;99227.69;5087296;28;21311;-67
2022/10/29 09:43:51;;;;;;;;;;;;;;;8.75;91.43;99213.28;5090264;28;19935;-67
2022/10/29 09:46:21;;;;;;;;;;;;;;;8.74;91.57;99214.34;5090034;28;19977;-67
2022/10/29 09:48:50;;;;;;;;;;;;;;;8.76;91.89;99206.72;5070682;28;19928;-67
2022/10/29 09:51:24;;;;;;;;;;;;;;;8.77;91.50;99211.88;5097163;28;19949;-67
2022/10/29 09:53:52;;;;;;;;;;;;;;;8.78;91.64;99210.78;5108889;28;20343;-67
2022/10/29 09:56:17;;;;;;;;;;;;;;;8.52;91.85;99158.28;5108495;27;20030;-68
2022/10/29 09:58:45;;;;;;;;;;;;;;;8.82;91.33;99205.59;5105539;28;20027;-67
2022/10/29 10:01:11;;;;;;;;;;;;;;;8.83;90.83;99199.06;5107314;27;19980;-67
2022/10/29 10:03:41;;;;;;;;;;;;;;;8.83;90.52;99195.53;5106827;28;19939;-67
2022/10/29 10:06:08;;;;;;;;;;;;;;;8.80;90.74;99194.16;5108314;28;20414;-67
2022/10/29 10:08:54;;;;;;;;;;;;;;;8.77;90.70;99190.09;5106481;28;19928;-67
2022/10/29 10:11:22;;;;;;;;;;;;;;;8.79;90.39;99179.72;5071462;28;19969;-67
2022/10/29 10:13:50;;;;;;;;;;;;;;;8.84;90.25;99183.53;5107388;28;20370;-67
2022/10/29 10:16:22;;;;;;;;;;;;;;;8.85;89.83;99171.53;5107420;28;19957;-68
2022/10/29 10:18:48;;;;;;;;;;;;;;;8.88;89.83;99190.06;5107566;28;20386;-65
2022/10/29 10:21:22;;;;;;;;;;;;;;;8.88;89.22;99168.25;5106495;28;19949;-64
2022/10/29 10:23:51;;;;;;;;;;;;;;;8.90;89.42;99169.59;5107005;28;20406;-64
2022/10/29 10:26:33;;;;;;;;;;;;;;;8.94;89.38;99178.84;5107192;28;19943;-64
2022/10/29 10:29:22;;;;;;;;;;;;;;;8.99;88.67;99164.38;5106975;28;20335;-64
2022/10/29 10:31:48;;;;;;;;;;;;;;;9.00;88.57;99171.47;5102033;28;19928;-64
2022/10/29 10:34:18;;;;;;;;;;;;;;;9.01;88.49;99162.19;5080649;28;20013;-64
2022/10/29 10:36:46;;;;;;;;;;;;;;;9.01;88.71;99156.75;5084356;28;19928;-64
2022/10/29 10:39:18;;;;;;;;;;;;;;;9.04;88.50;99141.72;5086907;28;19928;-65
2022/10/29 10:41:48;;;;;;;;;;;;;;;9.03;88.41;99148.25;5084229;28;19934;-64
2022/10/29 10:44:14;;;;;;;;;;;;;;;9.03;88.32;99126.44;5089441;28;19934;-67
2022/10/29 10:46:41;;;;;;;;;;;;;;;9.02;88.56;99133.00;5104756;28;19927;-67
2022/10/29 10:49:12;;;;;;;;;;;;;;;9.05;88.42;99124.25;5104787;28;19939;-68
2022/10/29 10:51:41;;;;;;;;;;;;;;;9.12;88.19;99119.31;5105147;28;20310;-67
2022/10/29 10:54:24;;;;;;;;;;;;;;;9.20;88.17;99115.19;5103419;28;19927;-70
2022/10/29 10:56:56;;;;;;;;;;;;;;;9.21;87.73;99120.38;5105210;28;19935;-67
2022/10/29 10:59:24;;;;;;;;;;;;;;;9.22;87.71;99111.06;5089930;28;19978;-68
2022/10/29 11:01:50;;;;;;;;;;;;;;;9.21;87.14;99106.72;5104394;28;19932;-67
2022/10/29 11:04:17;;;;;;;;;;;;;;;9.17;87.52;99108.38;5104196;28;19975;-67
2022/10/29 11:06:45;;;;;;;;;;;;;;;9.20;87.46;99105.06;5103584;28;19928;-67
2022/10/29 11:09:17;;;;;;;;;;;;;;;9.19;87.43;99100.72;5106031;28;19928;-67
2022/10/29 11:11:44;;;;;;;;;;;;;;;9.21;87.37;99103.16;5104901;28;19927;-67
2022/10/29 11:14:14;;;;;;;;;;;;;;;9.20;87.33;99096.09;5088698;28;20022;-67
2022/10/29 11:16:42;;;;;;;;;;;;;;;9.21;87.27;99094.97;5107103;28;19927;-67
2022/10/29 11:19:13;;;;;;;;;;;;;;;9.18;86.93;99090.91;5076319;28;19928;-64
2022/10/29 11:21:42;;;;;;;;;;;;;;;9.19;87.09;99084.34;5107300;28;19931;-64
2022/10/29 11:24:10;;;;;;;;;;;;;;;9.17;86.64;99085.75;5106475;28;19942;-64
2022/10/29 11:26:39;;;;;;;;;;;;;;;9.13;87.07;99074.56;5107635;28;19928;-64
2022/10/29 11:29:13;;;;;;;;;;;;;;;9.13;87.10;99071.03;5105944;28;20361;-67
2022/10/29 11:31:46;;;;;;;;;;;;;;;9.17;87.05;99069.38;5085679;28;19942;-67
2022/10/29 11:34:15;;;;;;;;;;;;;;;9.16;86.85;99070.47;5102843;28;19927;-67
2022/10/29 11:36:45;;;;;;;;;;;;;;;9.15;86.95;99071.59;5107480;28;19934;-67
2022/10/29 11:39:14;;;;;;;;;;;;;;;9.13;87.08;99060.13;5104650;28;19974;-67
2022/10/29 11:41:44;;;;;;;;;;;;;;;9.15;87.26;99064.19;5108928;28;19931;-67
2022/10/29 11:44:11;;;;;;;;;;;;;;;9.19;87.26;99048.09;5107450;28;20465;-67
2022/10/29 11:46:40;;;;;;;;;;;;;;;9.18;86.99;99055.44;5107323;28;19927;-67
2022/10/29 11:49:16;;;;;;;;;;;;;;;9.17;87.31;99050.28;5089013;28;19927;-67
2022/10/29 11:51:47;;;;;;;;;;;;;;;9.16;87.17;99046.72;5113689;28;20036;-67
2022/10/29 11:54:20;;;;;;;;;;;;;;;9.16;87.08;99059.56;5110509;28;19927;-68
2022/10/29 11:56:49;;;;;;;;;;;;;;;9.16;87.18;99035.03;5110832;28;20119;-67
2022/10/29 11:59:21;;;;;;;;;;;;;;;9.22;87.25;99042.88;5104143;28;19927;-67
2022/10/29 12:01:52;;;;;;;;;;;;;;;9.21;86.69;99033.06;5090571;28;20023;-67
2022/10/29 12:04:26;;;;;;;;;;;;;;;9.20;86.51;99039.59;5088672;28;19940;-67
2022/10/29 12:06:59;;;;;;;;;;;;;;;9.22;86.59;99031.97;5088894;28;19928;-67
2022/10/29 12:09:41;;;;;;;;;;;;;;;9.24;86.66;99034.41;5088884;28;19955;-67
2022/10/29 12:12:09;;;;;;;;;;;;;;;9.26;86.49;99029.47;5089920;28;19955;-67
2022/10/29 12:14:39;;;;;;;;;;;;;;;9.27;86.52;99022.13;5091027;28;19935;-67
2022/10/29 12:17:10;;;;;;;;;;;;;;;9.27;86.18;99020.19;5089614;28;19961;-67
2022/10/29 12:19:41;;;;;;;;;;;;;;;9.28;86.50;99013.63;5091686;28;19928;-67
2022/10/29 12:22:14;;;;;;;;;;;;;;;9.28;86.31;99012.84;5088657;28;20391;-67
2022/10/29 12:24:51;;;;;;;;;;;;;;;9.30;86.14;99006.00;5091583;28;19951;-67
2022/10/29 12:27:20;;;;;;;;;;;;;;;9.32;86.02;98998.34;5088451;28;20090;-67
2022/10/29 12:29:51;;;;;;;;;;;;;;;9.34;86.20;99001.59;5092359;28;20264;-67
2022/10/29 12:32:21;;;;;;;;;;;;;;;9.38;85.75;99012.75;5089945;28;19928;-66
2022/10/29 12:34:52;;;;;;;;;;;;;;;9.31;85.95;98991.25;5085299;28;19932;-67
2022/10/29 12:37:23;;;;;;;;;;;;;;;9.32;85.87;98992.06;5085149;28;19932;-67
2022/10/29 12:39:54;;;;;;;;;;;;;;;9.26;86.06;98996.75;5087717;28;19935;-63
2022/10/29 12:42:22;;;;;;;;;;;;;;;9.21;86.41;98986.72;5085036;28;19928;-67
2022/10/29 12:44:54;;;;;;;;;;;;;;;9.21;86.58;98991.34;5087973;28;19935;-63
2022/10/29 12:47:23;;;;;;;;;;;;;;;9.20;86.53;98978.81;5085277;28;19968;-63
2022/10/29 12:49:59;;;;;;;;;;;;;;;9.18;86.65;98976.34;5089345;28;19928;-67
2022/10/29 12:52:29;;;;;;;;;;;;;;;9.22;86.69;98984.78;5085898;28;20328;-67
2022/10/29 12:54:56;;;;;;;;;;;;;;;9.21;86.68;98967.63;5085335;28;20307;-67
2022/10/29 12:57:28;;;;;;;;;;;;;;;9.21;86.60;98970.34;5079770;28;19981;-67
2022/10/29 12:59:53;;;;;;;;;;;;;;;9.17;86.91;98958.34;5077986;28;19928;-67
2022/10/29 13:02:43;;;;;;;;;;;;;;;9.18;86.93;98961.91;5089961;28;19981;-66